sensor_id;sensor_type;location;lat;lon;timestamp;temperature;humidity
19397;DHT22;9834;48.076;11.878;2023-07-16T00:01:24;22.40;99.90
19397;DHT22;9834;48.076;11.878;2023-07-16T00:03:51;22.30;99.90
19397;DHT22;9834;48.076;11.878;2023-07-16T00:06:18;22.30;99.90
19397;DHT22;9834;48.076;11.878;2023-07-16T00:08:45;22.20;99.90
19397;DHT22;9834;48.076;11.878;2023-07-16T00:11:12;22.20;99.90
19397;DHT22;9834;48.076;11.878;2023-07-16T00:13:39;22.10;99.90
19397;DHT22;9834;48.076;11.878;2023-07-16T00:16:12;22.00;99.90
19397;DHT22;9834;48.076;11.878;2023-07-16T00:21:07;21.90;99.90
19397;DHT22;9834;48.076;11.878;2023-07-16T00:23:34;21.80;99.90
19397;DHT22;9834;48.076;11.878;2023-07-16T00:26:01;21.70;99.90
19397;DHT22;9834;48.076;11.878;2023-07-16T00:28:28;21.60;99.90
19397;DHT22;9834;48.076;11.878;2023-07-16T00:30:55;21.60;99.90
19397;DHT22;9834;48.076;11.878;2023-07-16T00:33:24;21.50;99.90
19397;DHT22;9834;48.076;11.878;2023-07-16T00:35:51;21.40;99.90
19397;DHT22;9834;48.076;11.878;2023-07-16T00:38:19;21.30;99.90
19397;DHT22;9834;48.076;11.878;2023-07-16T00:40:46;21.20;99.90
19397;DHT22;9834;48.076;11.878;2023-07-16T00:43:13;21.10;99.90
19397;DHT22;9834;48.076;11.878;2023-07-16T00:45:40;21.00;99.90
19397;DHT22;9834;48.076;11.878;2023-07-16T00:48:08;20.90;99.90
19397;DHT22;9834;48.076;11.878;2023-07-16T00:50:37;20.80;99.90
19397;DHT22;9834;48.076;11.878;2023-07-16T00:53:05;20.70;99.90
19397;DHT22;9834;48.076;11.878;2023-07-16T00:55:33;20.60;99.90
19397;DHT22;9834;48.076;11.878;2023-07-16T00:58:02;20.60;99.90
19397;DHT22;9834;48.076;11.878;2023-07-16T01:00:31;20.60;99.90
19397;DHT22;9834;48.076;11.878;2023-07-16T01:02:58;20.50;99.90
19397;DHT22;9834;48.076;11.878;2023-07-16T01:05:30;20.60;99.90
19397;DHT22;9834;48.076;11.878;2023-07-16T01:08:03;20.50;99.90
19397;DHT22;9834;48.076;11.878;2023-07-16T01:10:31;20.40;99.90
19397;DHT22;9834;48.076;11.878;2023-07-16T01:12:58;20.40;99.90
19397;DHT22;9834;48.076;11.878;2023-07-16T01:15:26;20.30;99.90
19397;DHT22;9834;48.076;11.878;2023-07-16T01:17:53;20.30;99.90
19397;DHT22;9834;48.076;11.878;2023-07-16T01:20:20;20.20;99.90
19397;DHT22;9834;48.076;11.878;2023-07-16T01:23:11;20.30;99.90
19397;DHT22;9834;48.076;11.878;2023-07-16T01:26:06;20.20;99.90
19397;DHT22;9834;48.076;11.878;2023-07-16T01:28:54;20.20;99.90
19397;DHT22;9834;48.076;11.878;2023-07-16T01:31:26;20.20;99.90
19397;DHT22;9834;48.076;11.878;2023-07-16T01:33:57;20.20;99.90
19397;DHT22;9834;48.076;11.878;2023-07-16T01:36:26;20.20;99.90
19397;DHT22;9834;48.076;11.878;2023-07-16T01:38:53;20.10;99.90
19397;DHT22;9834;48.076;11.878;2023-07-16T01:41:20;20.10;99.90
19397;DHT22;9834;48.076;11.878;2023-07-16T01:43:47;20.10;99.90
19397;DHT22;9834;48.076;11.878;2023-07-16T01:46:14;20.10;99.90
19397;DHT22;9834;48.076;11.878;2023-07-16T01:48:43;20.00;99.90
19397;DHT22;9834;48.076;11.878;2023-07-16T01:51:10;19.90;99.90
19397;DHT22;9834;48.076;11.878;2023-07-16T01:53:44;19.90;99.90
19397;DHT22;9834;48.076;11.878;2023-07-16T01:56:11;19.90;99.90
19397;DHT22;9834;48.076;11.878;2023-07-16T01:58:38;19.90;99.90
19397;DHT22;9834;48.076;11.878;2023-07-16T02:01:05;19.80;99.90
19397;DHT22;9834;48.076;11.878;2023-07-16T02:03:32;19.80;99.90
19397;DHT22;9834;48.076;11.878;2023-07-16T02:06:00;19.80;99.90
19397;DHT22;9834;48.076;11.878;2023-07-16T02:08:27;19.80;99.90
19397;DHT22;9834;48.076;11.878;2023-07-16T02:10:54;19.70;99.90
19397;DHT22;9834;48.076;11.878;2023-07-16T02:13:21;19.70;99.90
19397;DHT22;9834;48.076;11.878;2023-07-16T02:15:48;19.80;99.90
19397;DHT22;9834;48.076;11.878;2023-07-16T02:18:15;19.80;99.90
19397;DHT22;9834;48.076;11.878;2023-07-16T02:20:43;19.80;99.90
19397;DHT22;9834;48.076;11.878;2023-07-16T02:23:12;19.80;99.90
19397;DHT22;9834;48.076;11.878;2023-07-16T02:25:39;19.80;99.90
19397;DHT22;9834;48.076;11.878;2023-07-16T02:28:06;19.80;99.90
19397;DHT22;9834;48.076;11.878;2023-07-16T02:30:32;19.90;99.90
19397;DHT22;9834;48.076;11.878;2023-07-16T02:32:59;19.90;99.90
19397;DHT22;9834;48.076;11.878;2023-07-16T02:35:27;19.90;99.90
19397;DHT22;9834;48.076;11.878;2023-07-16T02:37:54;19.90;99.90
19397;DHT22;9834;48.076;11.878;2023-07-16T02:40:22;19.90;99.90
19397;DHT22;9834;48.076;11.878;2023-07-16T02:42:49;19.90;99.90
19397;DHT22;9834;48.076;11.878;2023-07-16T02:45:16;19.90;99.90
19397;DHT22;9834;48.076;11.878;2023-07-16T02:47:44;19.80;99.90
19397;DHT22;9834;48.076;11.878;2023-07-16T02:50:11;19.80;99.90
19397;DHT22;9834;48.076;11.878;2023-07-16T02:52:38;19.80;99.90
19397;DHT22;9834;48.076;11.878;2023-07-16T02:55:07;19.90;99.90
19397;DHT22;9834;48.076;11.878;2023-07-16T02:57:36;19.90;99.90
19397;DHT22;9834;48.076;11.878;2023-07-16T03:00:04;19.90;99.90
19397;DHT22;9834;48.076;11.878;2023-07-16T03:02:31;20.00;99.90
19397;DHT22;9834;48.076;11.878;2023-07-16T03:04:58;20.00;99.90
19397;DHT22;9834;48.076;11.878;2023-07-16T03:07:25;20.00;99.90
19397;DHT22;9834;48.076;11.878;2023-07-16T03:09:52;20.10;99.90
19397;DHT22;9834;48.076;11.878;2023-07-16T03:12:19;20.00;99.90
19397;DHT22;9834;48.076;11.878;2023-07-16T03:14:47;20.00;99.90
19397;DHT22;9834;48.076;11.878;2023-07-16T03:17:17;20.10;99.90
19397;DHT22;9834;48.076;11.878;2023-07-16T03:19:44;20.10;99.90
19397;DHT22;9834;48.076;11.878;2023-07-16T03:22:11;20.10;99.90
19397;DHT22;9834;48.076;11.878;2023-07-16T03:24:38;20.20;99.90
19397;DHT22;9834;48.076;11.878;2023-07-16T03:27:06;20.20;99.90
19397;DHT22;9834;48.076;11.878;2023-07-16T03:29:34;20.20;99.90
19397;DHT22;9834;48.076;11.878;2023-07-16T03:32:03;20.20;99.90
19397;DHT22;9834;48.076;11.878;2023-07-16T03:34:30;20.20;99.90
19397;DHT22;9834;48.076;11.878;2023-07-16T03:36:56;20.10;99.90
19397;DHT22;9834;48.076;11.878;2023-07-16T03:39:23;20.20;99.90
19397;DHT22;9834;48.076;11.878;2023-07-16T03:41:50;20.20;99.90
19397;DHT22;9834;48.076;11.878;2023-07-16T03:44:17;20.20;99.90
19397;DHT22;9834;48.076;11.878;2023-07-16T03:46:44;20.20;99.90
19397;DHT22;9834;48.076;11.878;2023-07-16T03:49:13;20.20;99.90
19397;DHT22;9834;48.076;11.878;2023-07-16T03:51:40;20.20;99.90
19397;DHT22;9834;48.076;11.878;2023-07-16T03:54:06;20.30;99.90
19397;DHT22;9834;48.076;11.878;2023-07-16T03:56:33;20.30;99.90
19397;DHT22;9834;48.076;11.878;2023-07-16T03:59:00;20.30;99.90
19397;DHT22;9834;48.076;11.878;2023-07-16T04:01:27;20.30;99.90
19397;DHT22;9834;48.076;11.878;2023-07-16T04:03:54;20.30;99.90
19397;DHT22;9834;48.076;11.878;2023-07-16T04:06:22;20.30;99.90
19397;DHT22;9834;48.076;11.878;2023-07-16T04:08:49;20.30;99.90
19397;DHT22;9834;48.076;11.878;2023-07-16T04:11:16;20.30;99.90
19397;DHT22;9834;48.076;11.878;2023-07-16T04:13:46;20.10;99.90
19397;DHT22;9834;48.076;11.878;2023-07-16T04:16:13;19.90;99.90
19397;DHT22;9834;48.076;11.878;2023-07-16T04:18:40;19.80;99.90
19397;DHT22;9834;48.076;11.878;2023-07-16T04:21:07;19.50;99.90
19397;DHT22;9834;48.076;11.878;2023-07-16T04:23:36;19.20;99.90
19397;DHT22;9834;48.076;11.878;2023-07-16T04:26:03;18.90;99.90
19397;DHT22;9834;48.076;11.878;2023-07-16T04:28:30;18.80;99.90
19397;DHT22;9834;48.076;11.878;2023-07-16T04:30:57;18.70;99.90
19397;DHT22;9834;48.076;11.878;2023-07-16T04:33:24;18.60;99.90
19397;DHT22;9834;48.076;11.878;2023-07-16T04:35:50;18.60;99.90
19397;DHT22;9834;48.076;11.878;2023-07-16T04:38:17;18.60;99.90
19397;DHT22;9834;48.076;11.878;2023-07-16T04:40:46;18.60;99.90
19397;DHT22;9834;48.076;11.878;2023-07-16T04:43:13;18.60;99.90
19397;DHT22;9834;48.076;11.878;2023-07-16T04:45:40;18.60;99.90
19397;DHT22;9834;48.076;11.878;2023-07-16T04:48:07;18.70;99.90
19397;DHT22;9834;48.076;11.878;2023-07-16T04:50:34;18.70;99.90
19397;DHT22;9834;48.076;11.878;2023-07-16T04:53:04;18.60;99.90
19397;DHT22;9834;48.076;11.878;2023-07-16T04:55:35;18.50;99.90
19397;DHT22;9834;48.076;11.878;2023-07-16T04:58:03;18.30;99.90
19397;DHT22;9834;48.076;11.878;2023-07-16T05:00:31;18.20;99.90
19397;DHT22;9834;48.076;11.878;2023-07-16T05:02:58;18.10;99.90
19397;DHT22;9834;48.076;11.878;2023-07-16T05:05:25;18.00;99.90
19397;DHT22;9834;48.076;11.878;2023-07-16T05:07:52;18.00;99.90
19397;DHT22;9834;48.076;11.878;2023-07-16T05:10:19;18.00;99.90
19397;DHT22;9834;48.076;11.878;2023-07-16T05:12:46;18.00;99.90
19397;DHT22;9834;48.076;11.878;2023-07-16T05:15:15;18.10;99.90
19397;DHT22;9834;48.076;11.878;2023-07-16T05:17:42;18.10;99.90
19397;DHT22;9834;48.076;11.878;2023-07-16T05:20:10;18.10;99.90
19397;DHT22;9834;48.076;11.878;2023-07-16T05:22:37;18.10;99.90
19397;DHT22;9834;48.076;11.878;2023-07-16T05:25:05;18.10;99.90
19397;DHT22;9834;48.076;11.878;2023-07-16T05:27:32;18.20;99.90
19397;DHT22;9834;48.076;11.878;2023-07-16T05:29:59;18.30;99.90
19397;DHT22;9834;48.076;11.878;2023-07-16T05:32:27;18.40;99.90
19397;DHT22;9834;48.076;11.878;2023-07-16T05:34:54;18.50;99.90
19397;DHT22;9834;48.076;11.878;2023-07-16T05:37:21;18.50;99.90
19397;DHT22;9834;48.076;11.878;2023-07-16T05:39:48;18.50;99.90
19397;DHT22;9834;48.076;11.878;2023-07-16T05:42:15;18.50;99.90
19397;DHT22;9834;48.076;11.878;2023-07-16T05:44:42;18.60;99.90
19397;DHT22;9834;48.076;11.878;2023-07-16T05:47:10;18.80;99.90
19397;DHT22;9834;48.076;11.878;2023-07-16T05:49:38;18.90;99.90
19397;DHT22;9834;48.076;11.878;2023-07-16T05:52:06;19.00;99.90
19397;DHT22;9834;48.076;11.878;2023-07-16T05:54:34;19.10;99.90
19397;DHT22;9834;48.076;11.878;2023-07-16T05:57:01;19.20;99.90
19397;DHT22;9834;48.076;11.878;2023-07-16T05:59:27;19.30;99.90
19397;DHT22;9834;48.076;11.878;2023-07-16T06:01:54;19.50;99.90
19397;DHT22;9834;48.076;11.878;2023-07-16T06:04:23;19.50;99.90
19397;DHT22;9834;48.076;11.878;2023-07-16T06:06:51;19.50;99.90
19397;DHT22;9834;48.076;11.878;2023-07-16T06:09:18;19.40;99.90
19397;DHT22;9834;48.076;11.878;2023-07-16T06:11:48;19.40;99.90
19397;DHT22;9834;48.076;11.878;2023-07-16T06:14:15;19.40;99.90
19397;DHT22;9834;48.076;11.878;2023-07-16T06:16:42;19.60;99.90
19397;DHT22;9834;48.076;11.878;2023-07-16T06:19:09;19.80;99.90
19397;DHT22;9834;48.076;11.878;2023-07-16T06:21:36;19.90;99.90
19397;DHT22;9834;48.076;11.878;2023-07-16T06:24:05;20.00;99.90
19397;DHT22;9834;48.076;11.878;2023-07-16T06:26:32;20.20;99.90
19397;DHT22;9834;48.076;11.878;2023-07-16T06:29:02;20.30;99.90
19397;DHT22;9834;48.076;11.878;2023-07-16T06:31:29;20.40;99.90
19397;DHT22;9834;48.076;11.878;2023-07-16T06:33:56;20.40;99.90
19397;DHT22;9834;48.076;11.878;2023-07-16T06:36:23;20.50;99.90
19397;DHT22;9834;48.076;11.878;2023-07-16T06:38:49;20.60;99.90
19397;DHT22;9834;48.076;11.878;2023-07-16T06:41:18;20.80;99.90
19397;DHT22;9834;48.076;11.878;2023-07-16T06:43:45;20.90;99.90
19397;DHT22;9834;48.076;11.878;2023-07-16T06:46:12;21.00;99.90
19397;DHT22;9834;48.076;11.878;2023-07-16T06:48:39;21.10;99.90
19397;DHT22;9834;48.076;11.878;2023-07-16T06:51:05;21.00;99.90
19397;DHT22;9834;48.076;11.878;2023-07-16T06:53:33;20.90;99.90
19397;DHT22;9834;48.076;11.878;2023-07-16T06:56:00;20.90;99.90
19397;DHT22;9834;48.076;11.878;2023-07-16T06:58:33;20.90;99.90
19397;DHT22;9834;48.076;11.878;2023-07-16T07:01:00;20.90;99.90
19397;DHT22;9834;48.076;11.878;2023-07-16T07:03:26;21.00;99.90
19397;DHT22;9834;48.076;11.878;2023-07-16T07:05:53;21.10;99.90
19397;DHT22;9834;48.076;11.878;2023-07-16T07:08:20;20.90;99.90
19397;DHT22;9834;48.076;11.878;2023-07-16T07:10:48;20.80;99.90
19397;DHT22;9834;48.076;11.878;2023-07-16T07:13:15;20.70;99.90
19397;DHT22;9834;48.076;11.878;2023-07-16T07:15:44;20.60;99.90
19397;DHT22;9834;48.076;11.878;2023-07-16T07:18:11;20.50;99.90
19397;DHT22;9834;48.076;11.878;2023-07-16T07:20:39;20.40;99.90
19397;DHT22;9834;48.076;11.878;2023-07-16T07:23:06;20.40;99.90
19397;DHT22;9834;48.076;11.878;2023-07-16T07:25:33;20.40;99.90
19397;DHT22;9834;48.076;11.878;2023-07-16T07:28:00;20.60;99.90
19397;DHT22;9834;48.076;11.878;2023-07-16T07:30:27;20.70;99.90
19397;DHT22;9834;48.076;11.878;2023-07-16T07:32:55;20.70;99.90
19397;DHT22;9834;48.076;11.878;2023-07-16T07:35:22;20.90;99.90
19397;DHT22;9834;48.076;11.878;2023-07-16T07:37:49;21.20;99.90
19397;DHT22;9834;48.076;11.878;2023-07-16T07:40:16;21.30;99.90
19397;DHT22;9834;48.076;11.878;2023-07-16T07:42:43;21.40;99.90
19397;DHT22;9834;48.076;11.878;2023-07-16T07:45:10;21.70;99.90
19397;DHT22;9834;48.076;11.878;2023-07-16T07:47:37;22.00;99.90
19397;DHT22;9834;48.076;11.878;2023-07-16T07:50:06;22.50;99.90
19397;DHT22;9834;48.076;11.878;2023-07-16T07:52:33;22.70;99.90
19397;DHT22;9834;48.076;11.878;2023-07-16T07:55:01;23.00;99.90
19397;DHT22;9834;48.076;11.878;2023-07-16T07:57:28;23.30;99.90
19397;DHT22;9834;48.076;11.878;2023-07-16T07:59:55;23.60;99.90
19397;DHT22;9834;48.076;11.878;2023-07-16T08:02:23;23.80;99.90
19397;DHT22;9834;48.076;11.878;2023-07-16T08:04:51;23.80;99.90
19397;DHT22;9834;48.076;11.878;2023-07-16T08:07:19;23.80;99.90
19397;DHT22;9834;48.076;11.878;2023-07-16T08:09:46;23.60;99.90
19397;DHT22;9834;48.076;11.878;2023-07-16T08:12:13;23.70;99.90
19397;DHT22;9834;48.076;11.878;2023-07-16T08:14:41;23.90;99.90
19397;DHT22;9834;48.076;11.878;2023-07-16T08:17:08;24.20;99.90
19397;DHT22;9834;48.076;11.878;2023-07-16T08:19:35;24.30;99.90
19397;DHT22;9834;48.076;11.878;2023-07-16T08:22:02;24.30;99.90
19397;DHT22;9834;48.076;11.878;2023-07-16T08:24:30;24.40;99.90
19397;DHT22;9834;48.076;11.878;2023-07-16T08:26:57;24.30;99.90
19397;DHT22;9834;48.076;11.878;2023-07-16T08:29:24;24.40;99.90
19397;DHT22;9834;48.076;11.878;2023-07-16T08:31:51;24.70;99.90
19397;DHT22;9834;48.076;11.878;2023-07-16T08:34:18;25.10;99.90
19397;DHT22;9834;48.076;11.878;2023-07-16T08:36:45;25.40;99.90
19397;DHT22;9834;48.076;11.878;2023-07-16T08:39:12;25.80;99.90
19397;DHT22;9834;48.076;11.878;2023-07-16T08:41:40;26.10;99.90
19397;DHT22;9834;48.076;11.878;2023-07-16T08:44:07;26.40;99.90
19397;DHT22;9834;48.076;11.878;2023-07-16T08:46:34;26.40;99.90
19397;DHT22;9834;48.076;11.878;2023-07-16T08:49:02;26.40;99.90
19397;DHT22;9834;48.076;11.878;2023-07-16T08:51:31;26.30;99.90
19397;DHT22;9834;48.076;11.878;2023-07-16T08:53:59;26.00;99.90
19397;DHT22;9834;48.076;11.878;2023-07-16T08:56:26;26.10;99.90
19397;DHT22;9834;48.076;11.878;2023-07-16T08:58:55;26.10;99.90
19397;DHT22;9834;48.076;11.878;2023-07-16T09:01:22;26.10;99.90
19397;DHT22;9834;48.076;11.878;2023-07-16T09:03:49;26.20;99.90
19397;DHT22;9834;48.076;11.878;2023-07-16T09:06:16;26.40;99.90
19397;DHT22;9834;48.076;11.878;2023-07-16T09:08:43;26.50;99.90
19397;DHT22;9834;48.076;11.878;2023-07-16T09:11:11;26.90;99.90
19397;DHT22;9834;48.076;11.878;2023-07-16T09:13:44;27.00;99.20
19397;DHT22;9834;48.076;11.878;2023-07-16T09:16:12;27.30;97.40
19397;DHT22;9834;48.076;11.878;2023-07-16T09:18:42;27.70;96.00
19397;DHT22;9834;48.076;11.878;2023-07-16T09:21:09;27.80;92.80
19397;DHT22;9834;48.076;11.878;2023-07-16T09:23:36;27.80;93.30
19397;DHT22;9834;48.076;11.878;2023-07-16T09:26:04;28.00;95.70
19397;DHT22;9834;48.076;11.878;2023-07-16T09:28:31;28.20;95.00
19397;DHT22;9834;48.076;11.878;2023-07-16T09:31:04;28.00;93.90
19397;DHT22;9834;48.076;11.878;2023-07-16T09:33:33;27.70;94.40
19397;DHT22;9834;48.076;11.878;2023-07-16T09:36:00;27.50;95.20
19397;DHT22;9834;48.076;11.878;2023-07-16T09:38:28;27.30;93.20
19397;DHT22;9834;48.076;11.878;2023-07-16T09:40:56;27.00;94.40
19397;DHT22;9834;48.076;11.878;2023-07-16T09:43:23;26.90;95.90
19397;DHT22;9834;48.076;11.878;2023-07-16T09:45:50;26.90;94.50
19397;DHT22;9834;48.076;11.878;2023-07-16T09:48:20;27.10;95.80
19397;DHT22;9834;48.076;11.878;2023-07-16T09:50:52;27.20;96.60
19397;DHT22;9834;48.076;11.878;2023-07-16T09:53:19;27.40;97.50
19397;DHT22;9834;48.076;11.878;2023-07-16T09:55:48;27.60;96.70
19397;DHT22;9834;48.076;11.878;2023-07-16T09:58:17;27.80;92.80
19397;DHT22;9834;48.076;11.878;2023-07-16T10:00:46;27.90;94.10
19397;DHT22;9834;48.076;11.878;2023-07-16T10:03:15;28.30;93.30
19397;DHT22;9834;48.076;11.878;2023-07-16T10:05:43;28.80;93.00
19397;DHT22;9834;48.076;11.878;2023-07-16T10:08:17;29.00;87.40
19397;DHT22;9834;48.076;11.878;2023-07-16T10:10:46;29.00;91.10
19397;DHT22;9834;48.076;11.878;2023-07-16T10:13:15;29.10;89.10
19397;DHT22;9834;48.076;11.878;2023-07-16T10:15:51;29.00;89.30
19397;DHT22;9834;48.076;11.878;2023-07-16T10:18:29;29.00;89.00
19397;DHT22;9834;48.076;11.878;2023-07-16T10:21:01;29.10;89.50
19397;DHT22;9834;48.076;11.878;2023-07-16T10:23:38;29.70;84.70
19397;DHT22;9834;48.076;11.878;2023-07-16T10:26:07;32.20;72.70
19397;DHT22;9834;48.076;11.878;2023-07-16T10:28:35;33.80;64.50
19397;DHT22;9834;48.076;11.878;2023-07-16T10:31:02;35.30;59.60
19397;DHT22;9834;48.076;11.878;2023-07-16T10:33:29;35.80;54.70
19397;DHT22;9834;48.076;11.878;2023-07-16T10:35:57;35.60;53.60
19397;DHT22;9834;48.076;11.878;2023-07-16T10:38:24;34.30;55.70
19397;DHT22;9834;48.076;11.878;2023-07-16T10:40:53;33.30;57.50
19397;DHT22;9834;48.076;11.878;2023-07-16T10:43:20;32.60;58.40
19397;DHT22;9834;48.076;11.878;2023-07-16T10:45:47;31.70;60.60
19397;DHT22;9834;48.076;11.878;2023-07-16T10:48:16;30.70;63.60
19397;DHT22;9834;48.076;11.878;2023-07-16T10:50:44;31.40;67.00
19397;DHT22;9834;48.076;11.878;2023-07-16T10:53:11;31.80;62.40
19397;DHT22;9834;48.076;11.878;2023-07-16T10:55:40;31.00;64.90
19397;DHT22;9834;48.076;11.878;2023-07-16T10:58:09;30.40;65.90
19397;DHT22;9834;48.076;11.878;2023-07-16T11:00:38;31.00;65.90
19397;DHT22;9834;48.076;11.878;2023-07-16T11:03:05;32.50;62.20
19397;DHT22;9834;48.076;11.878;2023-07-16T11:05:32;33.90;59.20
19397;DHT22;9834;48.076;11.878;2023-07-16T11:07:59;34.60;52.10
19397;DHT22;9834;48.076;11.878;2023-07-16T11:10:28;34.60;55.30
19397;DHT22;9834;48.076;11.878;2023-07-16T11:12:55;34.90;54.40
19397;DHT22;9834;48.076;11.878;2023-07-16T11:15:32;35.40;54.00
19397;DHT22;9834;48.076;11.878;2023-07-16T11:18:00;35.60;52.70
19397;DHT22;9834;48.076;11.878;2023-07-16T11:20:27;36.10;50.80
19397;DHT22;9834;48.076;11.878;2023-07-16T11:22:58;36.20;47.20
19397;DHT22;9834;48.076;11.878;2023-07-16T11:25:25;36.60;49.60
19397;DHT22;9834;48.076;11.878;2023-07-16T11:27:55;36.20;47.80
19397;DHT22;9834;48.076;11.878;2023-07-16T11:30:23;37.00;48.00
19397;DHT22;9834;48.076;11.878;2023-07-16T11:32:52;37.60;45.90
19397;DHT22;9834;48.076;11.878;2023-07-16T11:35:20;38.00;42.40
19397;DHT22;9834;48.076;11.878;2023-07-16T11:37:47;38.40;44.60
19397;DHT22;9834;48.076;11.878;2023-07-16T11:40:16;39.10;43.00
19397;DHT22;9834;48.076;11.878;2023-07-16T11:42:44;40.00;39.40
19397;DHT22;9834;48.076;11.878;2023-07-16T11:45:18;40.00;42.30
19397;DHT22;9834;48.076;11.878;2023-07-16T11:47:46;40.30;39.60
19397;DHT22;9834;48.076;11.878;2023-07-16T11:50:14;40.50;37.90
19397;DHT22;9834;48.076;11.878;2023-07-16T11:52:41;40.50;41.00
19397;DHT22;9834;48.076;11.878;2023-07-16T11:55:08;41.00;38.80
19397;DHT22;9834;48.076;11.878;2023-07-16T11:57:35;41.50;37.80
19397;DHT22;9834;48.076;11.878;2023-07-16T12:00:03;41.90;35.80
19397;DHT22;9834;48.076;11.878;2023-07-16T12:02:30;41.70;35.20
19397;DHT22;9834;48.076;11.878;2023-07-16T12:04:57;41.60;37.60
19397;DHT22;9834;48.076;11.878;2023-07-16T12:07:33;42.20;38.30
19397;DHT22;9834;48.076;11.878;2023-07-16T12:10:01;42.50;33.50
19397;DHT22;9834;48.076;11.878;2023-07-16T12:12:29;43.20;34.00
19397;DHT22;9834;48.076;11.878;2023-07-16T12:14:56;43.00;34.30
19397;DHT22;9834;48.076;11.878;2023-07-16T12:17:23;41.10;36.80
19397;DHT22;9834;48.076;11.878;2023-07-16T12:19:49;40.70;37.30
19397;DHT22;9834;48.076;11.878;2023-07-16T12:22:18;41.20;36.80
19397;DHT22;9834;48.076;11.878;2023-07-16T12:24:46;41.60;36.20
19397;DHT22;9834;48.076;11.878;2023-07-16T12:27:14;41.70;36.00
19397;DHT22;9834;48.076;11.878;2023-07-16T12:29:41;42.50;34.20
19397;DHT22;9834;48.076;11.878;2023-07-16T12:32:09;42.60;35.90
19397;DHT22;9834;48.076;11.878;2023-07-16T12:34:36;41.70;35.60
19397;DHT22;9834;48.076;11.878;2023-07-16T12:37:04;41.70;36.20
19397;DHT22;9834;48.076;11.878;2023-07-16T12:39:31;42.60;35.50
19397;DHT22;9834;48.076;11.878;2023-07-16T12:41:59;43.20;33.90
19397;DHT22;9834;48.076;11.878;2023-07-16T12:44:26;43.30;33.50
19397;DHT22;9834;48.076;11.878;2023-07-16T12:46:53;43.40;33.30
19397;DHT22;9834;48.076;11.878;2023-07-16T12:49:20;43.70;32.00
19397;DHT22;9834;48.076;11.878;2023-07-16T12:51:47;43.70;32.80
19397;DHT22;9834;48.076;11.878;2023-07-16T12:54:14;44.00;32.90
19397;DHT22;9834;48.076;11.878;2023-07-16T12:56:41;43.80;33.00
19397;DHT22;9834;48.076;11.878;2023-07-16T12:59:09;43.80;31.90
19397;DHT22;9834;48.076;11.878;2023-07-16T13:01:36;44.20;33.30
19397;DHT22;9834;48.076;11.878;2023-07-16T13:04:03;44.00;33.10
19397;DHT22;9834;48.076;11.878;2023-07-16T13:06:30;44.60;31.20
19397;DHT22;9834;48.076;11.878;2023-07-16T13:08:57;44.90;31.40
19397;DHT22;9834;48.076;11.878;2023-07-16T13:11:25;45.80;31.70
19397;DHT22;9834;48.076;11.878;2023-07-16T13:13:52;45.30;29.80
19397;DHT22;9834;48.076;11.878;2023-07-16T13:16:20;45.40;31.20
19397;DHT22;9834;48.076;11.878;2023-07-16T13:18:50;44.90;31.20
19397;DHT22;9834;48.076;11.878;2023-07-16T13:21:19;45.10;31.00
19397;DHT22;9834;48.076;11.878;2023-07-16T13:23:46;45.50;29.70
19397;DHT22;9834;48.076;11.878;2023-07-16T13:26:13;45.90;31.00
19397;DHT22;9834;48.076;11.878;2023-07-16T13:28:40;46.60;30.60
19397;DHT22;9834;48.076;11.878;2023-07-16T13:31:07;46.10;30.50
19397;DHT22;9834;48.076;11.878;2023-07-16T13:33:35;43.90;32.30
19397;DHT22;9834;48.076;11.878;2023-07-16T13:36:02;41.50;35.50
19397;DHT22;9834;48.076;11.878;2023-07-16T13:38:30;39.50;36.40
19397;DHT22;9834;48.076;11.878;2023-07-16T13:41:00;37.50;40.20
19397;DHT22;9834;48.076;11.878;2023-07-16T13:43:27;36.40;42.00
19397;DHT22;9834;48.076;11.878;2023-07-16T13:45:54;35.70;43.60
19397;DHT22;9834;48.076;11.878;2023-07-16T13:48:20;35.20;45.80
19397;DHT22;9834;48.076;11.878;2023-07-16T13:50:49;34.30;46.00
19397;DHT22;9834;48.076;11.878;2023-07-16T13:53:18;33.80;47.40
19397;DHT22;9834;48.076;11.878;2023-07-16T13:55:45;33.50;46.20
19397;DHT22;9834;48.076;11.878;2023-07-16T13:58:12;33.10;48.30
19397;DHT22;9834;48.076;11.878;2023-07-16T14:00:40;32.60;50.40
19397;DHT22;9834;48.076;11.878;2023-07-16T14:03:07;32.20;49.50
19397;DHT22;9834;48.076;11.878;2023-07-16T14:05:34;31.80;50.50
19397;DHT22;9834;48.076;11.878;2023-07-16T14:08:05;31.60;51.80
19397;DHT22;9834;48.076;11.878;2023-07-16T14:10:32;31.40;52.90
19397;DHT22;9834;48.076;11.878;2023-07-16T14:12:59;31.50;52.40
19397;DHT22;9834;48.076;11.878;2023-07-16T14:15:26;31.30;51.80
19397;DHT22;9834;48.076;11.878;2023-07-16T14:17:54;30.80;52.50
19397;DHT22;9834;48.076;11.878;2023-07-16T14:20:21;30.40;53.00
19397;DHT22;9834;48.076;11.878;2023-07-16T14:22:48;30.00;55.30
19397;DHT22;9834;48.076;11.878;2023-07-16T14:25:16;29.80;55.50
19397;DHT22;9834;48.076;11.878;2023-07-16T14:27:43;29.30;55.80
19397;DHT22;9834;48.076;11.878;2023-07-16T14:30:10;29.00;57.50
19397;DHT22;9834;48.076;11.878;2023-07-16T14:32:37;28.70;58.00
19397;DHT22;9834;48.076;11.878;2023-07-16T14:35:05;28.60;59.40
19397;DHT22;9834;48.076;11.878;2023-07-16T14:37:32;28.40;59.10
19397;DHT22;9834;48.076;11.878;2023-07-16T14:39:59;28.20;59.90
19397;DHT22;9834;48.076;11.878;2023-07-16T14:42:27;28.20;60.70
19397;DHT22;9834;48.076;11.878;2023-07-16T14:44:54;28.10;61.50
19397;DHT22;9834;48.076;11.878;2023-07-16T14:47:22;28.00;63.30
19397;DHT22;9834;48.076;11.878;2023-07-16T14:49:49;27.80;61.90
19397;DHT22;9834;48.076;11.878;2023-07-16T14:52:16;27.60;64.40
19397;DHT22;9834;48.076;11.878;2023-07-16T14:54:43;27.50;65.00
19397;DHT22;9834;48.076;11.878;2023-07-16T14:57:10;27.20;65.20
19397;DHT22;9834;48.076;11.878;2023-07-16T14:59:47;27.10;66.60
19397;DHT22;9834;48.076;11.878;2023-07-16T15:02:14;27.00;67.30
19397;DHT22;9834;48.076;11.878;2023-07-16T15:04:41;26.90;68.60
19397;DHT22;9834;48.076;11.878;2023-07-16T15:07:08;26.80;68.60
19397;DHT22;9834;48.076;11.878;2023-07-16T15:09:35;26.70;69.00
19397;DHT22;9834;48.076;11.878;2023-07-16T15:12:04;26.70;71.60
19397;DHT22;9834;48.076;11.878;2023-07-16T15:14:31;26.70;70.10
19397;DHT22;9834;48.076;11.878;2023-07-16T15:17:01;26.80;71.30
19397;DHT22;9834;48.076;11.878;2023-07-16T15:19:27;26.70;71.50
19397;DHT22;9834;48.076;11.878;2023-07-16T15:21:54;26.60;73.30
19397;DHT22;9834;48.076;11.878;2023-07-16T15:24:21;26.60;74.00
19397;DHT22;9834;48.076;11.878;2023-07-16T15:26:48;26.50;73.70
19397;DHT22;9834;48.076;11.878;2023-07-16T15:29:15;26.80;73.20
19397;DHT22;9834;48.076;11.878;2023-07-16T15:31:43;27.40;74.30
19397;DHT22;9834;48.076;11.878;2023-07-16T15:34:13;27.90;70.20
19397;DHT22;9834;48.076;11.878;2023-07-16T15:36:40;28.10;69.30